sensor_id;sensor_type;location;lat;lon;timestamp;temperature;humidity
9373;DHT22;10838;52.350;9.790;2023-07-13T00:00:44;20.30;91.90
9373;DHT22;10838;52.350;9.790;2023-07-13T00:03:10;20.30;91.90
9373;DHT22;10838;52.350;9.790;2023-07-13T00:05:39;20.30;91.90
9373;DHT22;10838;52.350;9.790;2023-07-13T00:08:06;20.20;92.00
9373;DHT22;10838;52.350;9.790;2023-07-13T00:10:33;20.20;92.00
9373;DHT22;10838;52.350;9.790;2023-07-13T00:13:00;20.10;92.00
9373;DHT22;10838;52.350;9.790;2023-07-13T00:15:28;20.10;92.00
9373;DHT22;10838;52.350;9.790;2023-07-13T00:17:57;20.10;92.00
9373;DHT22;10838;52.350;9.790;2023-07-13T00:20:24;20.00;92.00
9373;DHT22;10838;52.350;9.790;2023-07-13T00:22:51;20.00;92.00
9373;DHT22;10838;52.350;9.790;2023-07-13T00:25:19;20.00;92.10
9373;DHT22;10838;52.350;9.790;2023-07-13T00:27:47;20.00;92.10
9373;DHT22;10838;52.350;9.790;2023-07-13T00:30:14;19.90;92.10
9373;DHT22;10838;52.350;9.790;2023-07-13T00:32:43;19.90;92.10
9373;DHT22;10838;52.350;9.790;2023-07-13T00:35:10;19.90;92.10
9373;DHT22;10838;52.350;9.790;2023-07-13T00:37:36;19.80;92.10
9373;DHT22;10838;52.350;9.790;2023-07-13T00:40:04;19.80;92.20
9373;DHT22;10838;52.350;9.790;2023-07-13T00:42:31;19.70;92.20
9373;DHT22;10838;52.350;9.790;2023-07-13T00:45:03;19.70;92.20
9373;DHT22;10838;52.350;9.790;2023-07-13T00:47:31;19.70;92.20
9373;DHT22;10838;52.350;9.790;2023-07-13T00:49:59;19.60;92.20
9373;DHT22;10838;52.350;9.790;2023-07-13T00:52:26;19.60;92.30
9373;DHT22;10838;52.350;9.790;2023-07-13T00:54:53;19.60;92.30
9373;DHT22;10838;52.350;9.790;2023-07-13T00:57:21;19.60;92.30
9373;DHT22;10838;52.350;9.790;2023-07-13T00:59:52;19.60;92.30
9373;DHT22;10838;52.350;9.790;2023-07-13T01:02:20;19.50;92.30
9373;DHT22;10838;52.350;9.790;2023-07-13T01:04:47;19.50;92.30
9373;DHT22;10838;52.350;9.790;2023-07-13T01:07:15;19.40;92.30
9373;DHT22;10838;52.350;9.790;2023-07-13T01:09:42;19.40;92.30
9373;DHT22;10838;52.350;9.790;2023-07-13T01:12:09;19.40;92.30
9373;DHT22;10838;52.350;9.790;2023-07-13T01:14:36;19.30;92.40
9373;DHT22;10838;52.350;9.790;2023-07-13T01:17:03;19.30;92.30
9373;DHT22;10838;52.350;9.790;2023-07-13T01:19:35;19.20;92.30
9373;DHT22;10838;52.350;9.790;2023-07-13T01:22:04;19.20;92.30
9373;DHT22;10838;52.350;9.790;2023-07-13T01:24:34;19.10;92.30
9373;DHT22;10838;52.350;9.790;2023-07-13T01:27:01;19.10;92.30
9373;DHT22;10838;52.350;9.790;2023-07-13T01:29:29;19.00;92.30
9373;DHT22;10838;52.350;9.790;2023-07-13T01:31:56;18.90;92.30
9373;DHT22;10838;52.350;9.790;2023-07-13T01:34:22;18.90;92.30
9373;DHT22;10838;52.350;9.790;2023-07-13T01:36:49;18.90;92.30
9373;DHT22;10838;52.350;9.790;2023-07-13T01:39:20;18.80;92.30
9373;DHT22;10838;52.350;9.790;2023-07-13T01:41:47;18.70;92.30
9373;DHT22;10838;52.350;9.790;2023-07-13T01:44:13;18.70;92.30
9373;DHT22;10838;52.350;9.790;2023-07-13T01:46:40;18.70;92.30
9373;DHT22;10838;52.350;9.790;2023-07-13T01:49:07;18.60;92.30
9373;DHT22;10838;52.350;9.790;2023-07-13T01:51:33;18.60;92.30
9373;DHT22;10838;52.350;9.790;2023-07-13T01:54:00;18.60;92.30
9373;DHT22;10838;52.350;9.790;2023-07-13T01:56:27;18.50;92.30
9373;DHT22;10838;52.350;9.790;2023-07-13T01:58:54;18.50;92.40
9373;DHT22;10838;52.350;9.790;2023-07-13T02:01:21;18.40;92.40
9373;DHT22;10838;52.350;9.790;2023-07-13T02:03:47;18.40;92.40
9373;DHT22;10838;52.350;9.790;2023-07-13T02:06:14;18.40;92.40
9373;DHT22;10838;52.350;9.790;2023-07-13T02:08:41;18.30;92.40
9373;DHT22;10838;52.350;9.790;2023-07-13T02:11:07;18.30;92.40
9373;DHT22;10838;52.350;9.790;2023-07-13T02:13:35;18.20;92.40
9373;DHT22;10838;52.350;9.790;2023-07-13T02:16:02;18.20;92.40
9373;DHT22;10838;52.350;9.790;2023-07-13T02:18:29;18.20;92.40
9373;DHT22;10838;52.350;9.790;2023-07-13T02:20:55;18.10;92.40
9373;DHT22;10838;52.350;9.790;2023-07-13T02:23:22;18.10;92.40
9373;DHT22;10838;52.350;9.790;2023-07-13T02:25:49;18.00;92.50
9373;DHT22;10838;52.350;9.790;2023-07-13T02:28:15;18.00;92.50
9373;DHT22;10838;52.350;9.790;2023-07-13T02:30:43;17.90;92.50
9373;DHT22;10838;52.350;9.790;2023-07-13T02:33:10;17.90;92.50
9373;DHT22;10838;52.350;9.790;2023-07-13T02:35:36;17.90;92.60
9373;DHT22;10838;52.350;9.790;2023-07-13T02:38:03;17.90;92.60
9373;DHT22;10838;52.350;9.790;2023-07-13T02:40:29;17.80;92.60
9373;DHT22;10838;52.350;9.790;2023-07-13T02:42:58;17.80;92.60
9373;DHT22;10838;52.350;9.790;2023-07-13T02:45:25;17.80;92.60
9373;DHT22;10838;52.350;9.790;2023-07-13T02:47:53;17.80;92.60
9373;DHT22;10838;52.350;9.790;2023-07-13T02:50:19;17.70;92.60
9373;DHT22;10838;52.350;9.790;2023-07-13T02:52:46;17.70;92.60
9373;DHT22;10838;52.350;9.790;2023-07-13T02:55:13;17.70;92.60
9373;DHT22;10838;52.350;9.790;2023-07-13T02:57:39;17.70;92.60
9373;DHT22;10838;52.350;9.790;2023-07-13T03:00:07;17.60;92.60
9373;DHT22;10838;52.350;9.790;2023-07-13T03:02:34;17.60;92.60
9373;DHT22;10838;52.350;9.790;2023-07-13T03:05:03;17.60;92.60
9373;DHT22;10838;52.350;9.790;2023-07-13T03:07:30;17.60;92.60
9373;DHT22;10838;52.350;9.790;2023-07-13T03:09:58;17.60;92.60
9373;DHT22;10838;52.350;9.790;2023-07-13T03:12:25;17.60;92.60
9373;DHT22;10838;52.350;9.790;2023-07-13T03:14:52;17.60;92.60
9373;DHT22;10838;52.350;9.790;2023-07-13T03:17:18;17.60;92.60
9373;DHT22;10838;52.350;9.790;2023-07-13T03:19:45;17.50;92.60
9373;DHT22;10838;52.350;9.790;2023-07-13T03:22:16;17.50;92.60
9373;DHT22;10838;52.350;9.790;2023-07-13T03:24:42;17.40;92.60
9373;DHT22;10838;52.350;9.790;2023-07-13T03:27:09;17.40;92.70
9373;DHT22;10838;52.350;9.790;2023-07-13T03:29:36;17.40;92.70
9373;DHT22;10838;52.350;9.790;2023-07-13T03:32:03;17.40;92.70
9373;DHT22;10838;52.350;9.790;2023-07-13T03:34:30;17.30;92.70
9373;DHT22;10838;52.350;9.790;2023-07-13T03:36:58;17.40;92.70
9373;DHT22;10838;52.350;9.790;2023-07-13T03:39:26;17.30;92.70
9373;DHT22;10838;52.350;9.790;2023-07-13T03:41:53;17.30;92.70
9373;DHT22;10838;52.350;9.790;2023-07-13T03:44:19;17.30;92.70
9373;DHT22;10838;52.350;9.790;2023-07-13T03:46:46;17.30;92.70
9373;DHT22;10838;52.350;9.790;2023-07-13T03:49:12;17.30;92.70
9373;DHT22;10838;52.350;9.790;2023-07-13T03:51:39;17.20;92.70
9373;DHT22;10838;52.350;9.790;2023-07-13T03:54:05;17.20;92.80
9373;DHT22;10838;52.350;9.790;2023-07-13T03:56:33;17.20;92.80
9373;DHT22;10838;52.350;9.790;2023-07-13T03:59:00;17.20;92.80
9373;DHT22;10838;52.350;9.790;2023-07-13T04:01:27;17.20;92.80
9373;DHT22;10838;52.350;9.790;2023-07-13T04:03:54;17.20;92.80
9373;DHT22;10838;52.350;9.790;2023-07-13T04:06:22;17.20;92.90
9373;DHT22;10838;52.350;9.790;2023-07-13T04:08:53;17.20;92.90
9373;DHT22;10838;52.350;9.790;2023-07-13T04:11:21;17.20;92.90
9373;DHT22;10838;52.350;9.790;2023-07-13T04:13:50;17.20;92.90
9373;DHT22;10838;52.350;9.790;2023-07-13T04:16:18;17.20;93.00
9373;DHT22;10838;52.350;9.790;2023-07-13T04:18:46;17.20;93.00
9373;DHT22;10838;52.350;9.790;2023-07-13T04:21:13;17.30;93.00
9373;DHT22;10838;52.350;9.790;2023-07-13T04:23:40;17.30;93.00
9373;DHT22;10838;52.350;9.790;2023-07-13T04:26:07;17.40;93.10
9373;DHT22;10838;52.350;9.790;2023-07-13T04:28:34;17.40;93.10
9373;DHT22;10838;52.350;9.790;2023-07-13T04:31:02;17.40;93.00
9373;DHT22;10838;52.350;9.790;2023-07-13T04:33:29;17.50;93.00
9373;DHT22;10838;52.350;9.790;2023-07-13T04:35:56;17.50;93.00
9373;DHT22;10838;52.350;9.790;2023-07-13T04:38:27;17.50;93.00
9373;DHT22;10838;52.350;9.790;2023-07-13T04:40:55;17.60;93.00
9373;DHT22;10838;52.350;9.790;2023-07-13T04:43:22;17.60;93.00
9373;DHT22;10838;52.350;9.790;2023-07-13T04:45:50;17.70;93.00
9373;DHT22;10838;52.350;9.790;2023-07-13T04:48:18;17.70;93.00
9373;DHT22;10838;52.350;9.790;2023-07-13T04:50:45;17.70;93.00
9373;DHT22;10838;52.350;9.790;2023-07-13T04:53:12;17.70;93.00
9373;DHT22;10838;52.350;9.790;2023-07-13T04:55:39;17.70;93.00
9373;DHT22;10838;52.350;9.790;2023-07-13T04:58:06;17.70;93.00
9373;DHT22;10838;52.350;9.790;2023-07-13T05:00:33;17.80;93.00
9373;DHT22;10838;52.350;9.790;2023-07-13T05:03:00;17.80;93.00
9373;DHT22;10838;52.350;9.790;2023-07-13T05:05:28;17.80;92.90
9373;DHT22;10838;52.350;9.790;2023-07-13T05:07:54;17.90;92.90
9373;DHT22;10838;52.350;9.790;2023-07-13T05:10:21;17.90;92.90
9373;DHT22;10838;52.350;9.790;2023-07-13T05:12:48;17.90;92.90
9373;DHT22;10838;52.350;9.790;2023-07-13T05:15:15;18.00;92.90
9373;DHT22;10838;52.350;9.790;2023-07-13T05:17:46;18.00;92.90
9373;DHT22;10838;52.350;9.790;2023-07-13T05:20:12;18.00;92.90
9373;DHT22;10838;52.350;9.790;2023-07-13T05:22:41;18.00;92.80
9373;DHT22;10838;52.350;9.790;2023-07-13T05:25:07;18.10;92.80
9373;DHT22;10838;52.350;9.790;2023-07-13T05:27:34;18.10;92.80
9373;DHT22;10838;52.350;9.790;2023-07-13T05:30:02;18.20;92.80
9373;DHT22;10838;52.350;9.790;2023-07-13T05:32:29;18.20;92.80
9373;DHT22;10838;52.350;9.790;2023-07-13T05:34:56;18.20;92.80
9373;DHT22;10838;52.350;9.790;2023-07-13T05:37:22;18.30;92.80
9373;DHT22;10838;52.350;9.790;2023-07-13T05:39:50;18.40;92.80
9373;DHT22;10838;52.350;9.790;2023-07-13T05:42:17;18.40;92.80
9373;DHT22;10838;52.350;9.790;2023-07-13T05:44:44;18.50;92.80
9373;DHT22;10838;52.350;9.790;2023-07-13T05:47:10;18.60;92.80
9373;DHT22;10838;52.350;9.790;2023-07-13T05:49:39;18.60;92.70
9373;DHT22;10838;52.350;9.790;2023-07-13T05:52:06;18.80;92.70
9373;DHT22;10838;52.350;9.790;2023-07-13T05:54:33;18.90;92.70
9373;DHT22;10838;52.350;9.790;2023-07-13T05:57:01;19.00;92.60
9373;DHT22;10838;52.350;9.790;2023-07-13T05:59:27;19.20;92.60
9373;DHT22;10838;52.350;9.790;2023-07-13T06:01:54;19.40;92.50
9373;DHT22;10838;52.350;9.790;2023-07-13T06:04:20;19.50;92.50
9373;DHT22;10838;52.350;9.790;2023-07-13T06:06:47;19.80;92.40
9373;DHT22;10838;52.350;9.790;2023-07-13T06:09:14;20.00;92.40
9373;DHT22;10838;52.350;9.790;2023-07-13T06:11:41;20.10;92.30
9373;DHT22;10838;52.350;9.790;2023-07-13T06:14:09;20.30;92.20
9373;DHT22;10838;52.350;9.790;2023-07-13T06:16:35;20.50;92.20
9373;DHT22;10838;52.350;9.790;2023-07-13T06:19:02;20.60;92.10
9373;DHT22;10838;52.350;9.790;2023-07-13T06:21:28;20.70;92.10
9373;DHT22;10838;52.350;9.790;2023-07-13T06:23:55;20.90;92.10
9373;DHT22;10838;52.350;9.790;2023-07-13T06:26:22;21.00;92.00
9373;DHT22;10838;52.350;9.790;2023-07-13T06:28:48;21.10;92.00
9373;DHT22;10838;52.350;9.790;2023-07-13T06:31:16;21.20;91.90
9373;DHT22;10838;52.350;9.790;2023-07-13T06:33:43;21.20;91.90
9373;DHT22;10838;52.350;9.790;2023-07-13T06:36:10;21.20;91.90
9373;DHT22;10838;52.350;9.790;2023-07-13T06:38:37;21.20;91.90
9373;DHT22;10838;52.350;9.790;2023-07-13T06:41:05;21.20;91.90
9373;DHT22;10838;52.350;9.790;2023-07-13T06:43:32;21.20;91.90
9373;DHT22;10838;52.350;9.790;2023-07-13T06:45:58;21.20;92.00
9373;DHT22;10838;52.350;9.790;2023-07-13T06:48:26;21.20;91.90
9373;DHT22;10838;52.350;9.790;2023-07-13T06:50:53;21.20;91.90
9373;DHT22;10838;52.350;9.790;2023-07-13T06:53:20;21.20;91.90
9373;DHT22;10838;52.350;9.790;2023-07-13T06:55:47;21.20;91.90
9373;DHT22;10838;52.350;9.790;2023-07-13T06:58:15;21.20;91.90
9373;DHT22;10838;52.350;9.790;2023-07-13T07:00:43;21.20;91.90
9373;DHT22;10838;52.350;9.790;2023-07-13T07:03:09;21.20;91.80
9373;DHT22;10838;52.350;9.790;2023-07-13T07:05:37;21.20;91.70
9373;DHT22;10838;52.350;9.790;2023-07-13T07:08:04;21.30;91.70
9373;DHT22;10838;52.350;9.790;2023-07-13T07:10:31;21.60;91.60
9373;DHT22;10838;52.350;9.790;2023-07-13T07:12:58;21.80;91.50
9373;DHT22;10838;52.350;9.790;2023-07-13T07:15:25;22.10;91.50
9373;DHT22;10838;52.350;9.790;2023-07-13T07:17:52;22.30;91.40
9373;DHT22;10838;52.350;9.790;2023-07-13T07:20:18;22.40;91.20
9373;DHT22;10838;52.350;9.790;2023-07-13T07:22:47;22.60;91.20
9373;DHT22;10838;52.350;9.790;2023-07-13T07:25:13;22.70;91.10
9373;DHT22;10838;52.350;9.790;2023-07-13T07:27:40;22.70;91.00
9373;DHT22;10838;52.350;9.790;2023-07-13T07:30:07;22.70;91.00
9373;DHT22;10838;52.350;9.790;2023-07-13T07:32:34;22.70;91.00
9373;DHT22;10838;52.350;9.790;2023-07-13T07:35:01;22.60;91.00
9373;DHT22;10838;52.350;9.790;2023-07-13T07:37:27;22.70;91.00
9373;DHT22;10838;52.350;9.790;2023-07-13T07:39:55;22.70;90.90
9373;DHT22;10838;52.350;9.790;2023-07-13T07:42:22;22.90;91.00
9373;DHT22;10838;52.350;9.790;2023-07-13T07:44:48;23.00;90.90
9373;DHT22;10838;52.350;9.790;2023-07-13T07:47:15;23.10;90.90
9373;DHT22;10838;52.350;9.790;2023-07-13T07:49:42;23.20;90.80
9373;DHT22;10838;52.350;9.790;2023-07-13T07:52:09;23.20;90.70
9373;DHT22;10838;52.350;9.790;2023-07-13T07:54:35;23.20;90.70
9373;DHT22;10838;52.350;9.790;2023-07-13T07:57:03;23.30;90.70
9373;DHT22;10838;52.350;9.790;2023-07-13T07:59:30;23.30;90.70
9373;DHT22;10838;52.350;9.790;2023-07-13T08:01:57;23.20;90.80
9373;DHT22;10838;52.350;9.790;2023-07-13T08:04:23;23.20;90.80
9373;DHT22;10838;52.350;9.790;2023-07-13T08:06:50;23.40;90.80
9373;DHT22;10838;52.350;9.790;2023-07-13T08:09:16;23.40;90.80
9373;DHT22;10838;52.350;9.790;2023-07-13T08:11:43;23.50;90.70
9373;DHT22;10838;52.350;9.790;2023-07-13T08:14:11;23.50;90.70
9373;DHT22;10838;52.350;9.790;2023-07-13T08:16:37;23.40;90.70
9373;DHT22;10838;52.350;9.790;2023-07-13T08:19:04;23.40;90.70
9373;DHT22;10838;52.350;9.790;2023-07-13T08:21:31;23.50;90.70
9373;DHT22;10838;52.350;9.790;2023-07-13T08:23:58;23.60;90.60
9373;DHT22;10838;52.350;9.790;2023-07-13T08:26:24;23.80;90.60
9373;DHT22;10838;52.350;9.790;2023-07-13T08:28:51;23.90;90.60
9373;DHT22;10838;52.350;9.790;2023-07-13T08:31:19;24.00;90.60
9373;DHT22;10838;52.350;9.790;2023-07-13T08:33:46;24.10;90.60
9373;DHT22;10838;52.350;9.790;2023-07-13T08:36:12;24.10;90.50
9373;DHT22;10838;52.350;9.790;2023-07-13T08:38:39;24.20;90.60
9373;DHT22;10838;52.350;9.790;2023-07-13T08:41:11;24.10;90.50
9373;DHT22;10838;52.350;9.790;2023-07-13T08:43:38;24.10;90.50
9373;DHT22;10838;52.350;9.790;2023-07-13T08:46:09;24.10;90.50
9373;DHT22;10838;52.350;9.790;2023-07-13T08:48:41;24.10;90.50
9373;DHT22;10838;52.350;9.790;2023-07-13T08:51:21;24.10;90.50
9373;DHT22;10838;52.350;9.790;2023-07-13T08:53:52;24.10;90.50
9373;DHT22;10838;52.350;9.790;2023-07-13T08:56:24;24.20;90.60
9373;DHT22;10838;52.350;9.790;2023-07-13T08:58:55;24.20;90.60
9373;DHT22;10838;52.350;9.790;2023-07-13T09:01:27;24.10;90.60
9373;DHT22;10838;52.350;9.790;2023-07-13T09:04:02;24.20;90.60
9373;DHT22;10838;52.350;9.790;2023-07-13T09:06:35;24.10;90.50
9373;DHT22;10838;52.350;9.790;2023-07-13T09:09:10;24.10;90.50
9373;DHT22;10838;52.350;9.790;2023-07-13T09:11:47;24.10;90.50
9373;DHT22;10838;52.350;9.790;2023-07-13T09:14:35;24.10;90.60
9373;DHT22;10838;52.350;9.790;2023-07-13T09:17:03;24.10;90.60
9373;DHT22;10838;52.350;9.790;2023-07-13T09:19:33;24.10;90.60
9373;DHT22;10838;52.350;9.790;2023-07-13T09:22:02;24.10;90.60
9373;DHT22;10838;52.350;9.790;2023-07-13T09:24:36;24.30;90.60
9373;DHT22;10838;52.350;9.790;2023-07-13T09:27:12;24.40;90.60
9373;DHT22;10838;52.350;9.790;2023-07-13T09:29:42;24.40;90.50
9373;DHT22;10838;52.350;9.790;2023-07-13T09:32:13;24.40;90.40
9373;DHT22;10838;52.350;9.790;2023-07-13T09:34:42;24.40;90.50
9373;DHT22;10838;52.350;9.790;2023-07-13T09:37:08;24.40;90.50
9373;DHT22;10838;52.350;9.790;2023-07-13T09:39:38;24.40;90.40
9373;DHT22;10838;52.350;9.790;2023-07-13T09:42:12;24.40;90.40
9373;DHT22;10838;52.350;9.790;2023-07-13T09:44:51;24.40;90.40
9373;DHT22;10838;52.350;9.790;2023-07-13T09:47:20;24.40;90.50
9373;DHT22;10838;52.350;9.790;2023-07-13T09:49:56;24.40;90.50
9373;DHT22;10838;52.350;9.790;2023-07-13T09:52:25;24.60;90.50
9373;DHT22;10838;52.350;9.790;2023-07-13T09:54:54;24.80;90.40
9373;DHT22;10838;52.350;9.790;2023-07-13T09:57:25;24.90;90.40
9373;DHT22;10838;52.350;9.790;2023-07-13T09:59:55;25.10;90.30
9373;DHT22;10838;52.350;9.790;2023-07-13T10:02:28;25.10;90.20
9373;DHT22;10838;52.350;9.790;2023-07-13T10:04:58;25.00;90.20
9373;DHT22;10838;52.350;9.790;2023-07-13T10:07:25;25.10;90.30
9373;DHT22;10838;52.350;9.790;2023-07-13T10:09:52;25.10;90.30
9373;DHT22;10838;52.350;9.790;2023-07-13T10:12:19;25.20;90.20
9373;DHT22;10838;52.350;9.790;2023-07-13T10:14:48;25.20;90.20
9373;DHT22;10838;52.350;9.790;2023-07-13T10:17:16;25.20;90.00
9373;DHT22;10838;52.350;9.790;2023-07-13T10:19:48;25.10;90.00
9373;DHT22;10838;52.350;9.790;2023-07-13T10:22:21;25.10;90.10
9373;DHT22;10838;52.350;9.790;2023-07-13T10:24:50;25.00;90.10
9373;DHT22;10838;52.350;9.790;2023-07-13T10:27:19;24.90;90.00
9373;DHT22;10838;52.350;9.790;2023-07-13T10:30:01;24.90;90.10
9373;DHT22;10838;52.350;9.790;2023-07-13T10:32:28;25.00;90.10
9373;DHT22;10838;52.350;9.790;2023-07-13T10:34:54;25.10;90.10
9373;DHT22;10838;52.350;9.790;2023-07-13T10:37:27;25.20;90.00
9373;DHT22;10838;52.350;9.790;2023-07-13T10:39:56;25.30;89.80
9373;DHT22;10838;52.350;9.790;2023-07-13T10:42:29;25.40;89.70
9373;DHT22;10838;52.350;9.790;2023-07-13T10:44:56;25.50;89.70
9373;DHT22;10838;52.350;9.790;2023-07-13T10:47:24;25.60;89.70
9373;DHT22;10838;52.350;9.790;2023-07-13T10:49:54;25.70;89.50
9373;DHT22;10838;52.350;9.790;2023-07-13T10:52:41;25.70;89.70
9373;DHT22;10838;52.350;9.790;2023-07-13T10:55:30;25.80;89.60
9373;DHT22;10838;52.350;9.790;2023-07-13T10:58:00;25.90;89.30
9373;DHT22;10838;52.350;9.790;2023-07-13T11:00:30;25.90;89.00
9373;DHT22;10838;52.350;9.790;2023-07-13T11:02:59;25.90;88.80
9373;DHT22;10838;52.350;9.790;2023-07-13T11:05:29;25.90;88.90
9373;DHT22;10838;52.350;9.790;2023-07-13T11:08:12;25.90;88.70
9373;DHT22;10838;52.350;9.790;2023-07-13T11:10:51;25.90;88.90
9373;DHT22;10838;52.350;9.790;2023-07-13T11:16:36;26.00;88.80
9373;DHT22;10838;52.350;9.790;2023-07-13T11:19:26;26.00;89.00
9373;DHT22;10838;52.350;9.790;2023-07-13T11:22:09;26.00;89.10
9373;DHT22;10838;52.350;9.790;2023-07-13T11:24:57;26.10;89.30
9373;DHT22;10838;52.350;9.790;2023-07-13T11:27:39;26.20;89.50
9373;DHT22;10838;52.350;9.790;2023-07-13T11:30:18;26.30;89.00
9373;DHT22;10838;52.350;9.790;2023-07-13T11:32:50;26.40;89.10
9373;DHT22;10838;52.350;9.790;2023-07-13T11:35:22;26.50;88.90
9373;DHT22;10838;52.350;9.790;2023-07-13T11:37:49;26.60;89.00
9373;DHT22;10838;52.350;9.790;2023-07-13T11:40:19;26.70;88.90
9373;DHT22;10838;52.350;9.790;2023-07-13T11:42:48;26.80;88.80
9373;DHT22;10838;52.350;9.790;2023-07-13T11:45:22;26.80;88.80
9373;DHT22;10838;52.350;9.790;2023-07-13T11:47:49;26.90;88.20
9373;DHT22;10838;52.350;9.790;2023-07-13T11:50:20;26.90;88.10
9373;DHT22;10838;52.350;9.790;2023-07-13T11:52:48;26.90;88.00
9373;DHT22;10838;52.350;9.790;2023-07-13T11:55:18;26.90;87.80
9373;DHT22;10838;52.350;9.790;2023-07-13T11:57:48;26.90;87.80
9373;DHT22;10838;52.350;9.790;2023-07-13T12:00:18;26.90;87.80
9373;DHT22;10838;52.350;9.790;2023-07-13T12:02:49;26.90;87.80
9373;DHT22;10838;52.350;9.790;2023-07-13T12:05:18;27.00;87.90
9373;DHT22;10838;52.350;9.790;2023-07-13T12:07:46;27.00;87.60
9373;DHT22;10838;52.350;9.790;2023-07-13T12:10:20;27.00;87.50
9373;DHT22;10838;52.350;9.790;2023-07-13T12:12:48;27.00;87.40
9373;DHT22;10838;52.350;9.790;2023-07-13T12:15:15;27.10;87.60
9373;DHT22;10838;52.350;9.790;2023-07-13T12:17:41;27.10;87.60
9373;DHT22;10838;52.350;9.790;2023-07-13T12:20:19;27.10;87.40
9373;DHT22;10838;52.350;9.790;2023-07-13T12:22:47;27.10;87.60
9373;DHT22;10838;52.350;9.790;2023-07-13T12:25:15;27.10;87.40
9373;DHT22;10838;52.350;9.790;2023-07-13T12:27:46;27.10;87.60
9373;DHT22;10838;52.350;9.790;2023-07-13T12:30:26;27.00;87.70
9373;DHT22;10838;52.350;9.790;2023-07-13T12:32:59;26.90;87.60
9373;DHT22;10838;52.350;9.790;2023-07-13T12:35:28;26.90;87.70
9373;DHT22;10838;52.350;9.790;2023-07-13T12:37:57;26.80;87.40
9373;DHT22;10838;52.350;9.790;2023-07-13T12:40:28;26.70;87.40
9373;DHT22;10838;52.350;9.790;2023-07-13T12:42:59;26.60;87.50
9373;DHT22;10838;52.350;9.790;2023-07-13T12:45:30;26.60;87.70
9373;DHT22;10838;52.350;9.790;2023-07-13T12:47:58;26.60;88.10
9373;DHT22;10838;52.350;9.790;2023-07-13T12:50:29;26.60;88.20
9373;DHT22;10838;52.350;9.790;2023-07-13T12:53:01;26.70;88.10
9373;DHT22;10838;52.350;9.790;2023-07-13T12:55:29;26.70;87.90
9373;DHT22;10838;52.350;9.790;2023-07-13T12:58:03;26.70;87.80
9373;DHT22;10838;52.350;9.790;2023-07-13T13:00:31;26.70;87.70
9373;DHT22;10838;52.350;9.790;2023-07-13T13:03:03;26.60;87.70
9373;DHT22;10838;52.350;9.790;2023-07-13T13:05:32;26.60;87.50
9373;DHT22;10838;52.350;9.790;2023-07-13T13:08:00;26.50;87.40
9373;DHT22;10838;52.350;9.790;2023-07-13T13:10:27;26.50;87.40
9373;DHT22;10838;52.350;9.790;2023-07-13T13:12:54;26.40;87.60
9373;DHT22;10838;52.350;9.790;2023-07-13T13:15:22;26.30;88.00
9373;DHT22;10838;52.350;9.790;2023-07-13T13:17:49;26.10;89.10
9373;DHT22;10838;52.350;9.790;2023-07-13T13:20:17;25.90;89.50
9373;DHT22;10838;52.350;9.790;2023-07-13T13:22:44;25.70;89.90
9373;DHT22;10838;52.350;9.790;2023-07-13T13:25:11;25.50;90.10
9373;DHT22;10838;52.350;9.790;2023-07-13T13:27:39;25.30;90.20
9373;DHT22;10838;52.350;9.790;2023-07-13T13:30:10;25.20;90.30
9373;DHT22;10838;52.350;9.790;2023-07-13T13:32:39;25.10;90.40
9373;DHT22;10838;52.350;9.790;2023-07-13T13:35:13;25.00;90.40
9373;DHT22;10838;52.350;9.790;2023-07-13T13:37:39;24.90;90.40
9373;DHT22;10838;52.350;9.790;2023-07-13T13:40:14;24.90;90.40
9373;DHT22;10838;52.350;9.790;2023-07-13T13:42:41;24.80;90.50
9373;DHT22;10838;52.350;9.790;2023-07-13T13:45:09;24.70;90.50
9373;DHT22;10838;52.350;9.790;2023-07-13T13:47:38;24.70;90.60
9373;DHT22;10838;52.350;9.790;2023-07-13T13:50:13;24.60;90.50
9373;DHT22;10838;52.350;9.790;2023-07-13T13:52:41;24.60;90.50
9373;DHT22;10838;52.350;9.790;2023-07-13T13:55:12;24.50;90.50
9373;DHT22;10838;52.350;9.790;2023-07-13T13:57:39;24.40;90.40
9373;DHT22;10838;52.350;9.790;2023-07-13T14:00:07;24.20;90.40
9373;DHT22;10838;52.350;9.790;2023-07-13T14:02:34;24.10;90.40
9373;DHT22;10838;52.350;9.790;2023-07-13T14:05:02;24.00;90.60
9373;DHT22;10838;52.350;9.790;2023-07-13T14:07:31;23.90;90.60
9373;DHT22;10838;52.350;9.790;2023-07-13T14:09:59;23.80;90.60
9373;DHT22;10838;52.350;9.790;2023-07-13T14:12:26;23.80;90.70
9373;DHT22;10838;52.350;9.790;2023-07-13T14:14:54;23.70;90.70
9373;DHT22;10838;52.350;9.790;2023-07-13T14:17:23;23.70;90.80
9373;DHT22;10838;52.350;9.790;2023-07-13T14:19:51;23.70;90.80
9373;DHT22;10838;52.350;9.790;2023-07-13T14:22:23;23.60;90.90
9373;DHT22;10838;52.350;9.790;2023-07-13T14:24:51;23.60;90.90
9373;DHT22;10838;52.350;9.790;2023-07-13T14:27:18;23.70;91.00
9373;DHT22;10838;52.350;9.790;2023-07-13T14:29:45;23.70;91.10
9373;DHT22;10838;52.350;9.790;2023-07-13T14:32:12;23.70;91.00
9373;DHT22;10838;52.350;9.790;2023-07-13T14:34:39;23.70;91.10
9373;DHT22;10838;52.350;9.790;2023-07-13T14:37:13;23.80;91.00
9373;DHT22;10838;52.350;9.790;2023-07-13T14:39:40;23.90;91.00
9373;DHT22;10838;52.350;9.790;2023-07-13T14:42:10;23.90;90.90
9373;DHT22;10838;52.350;9.790;2023-07-13T14:44:38;23.90;90.80
9373;DHT22;10838;52.350;9.790;2023-07-13T14:47:06;23.90;90.70
9373;DHT22;10838;52.350;9.790;2023-07-13T14:49:35;23.70;90.70
9373;DHT22;10838;52.350;9.790;2023-07-13T14:52:09;23.70;90.60
9373;DHT22;10838;52.350;9.790;2023-07-13T14:54:37;23.50;90.50
9373;DHT22;10838;52.350;9.790;2023-07-13T14:57:10;23.30;90.60
9373;DHT22;10838;52.350;9.790;2023-07-13T14:59:37;23.20;90.60
9373;DHT22;10838;52.350;9.790;2023-07-13T15:02:16;23.10;90.60
9373;DHT22;10838;52.350;9.790;2023-07-13T15:04:44;23.00;90.60
9373;DHT22;10838;52.350;9.790;2023-07-13T15:07:11;23.00;90.60
9373;DHT22;10838;52.350;9.790;2023-07-13T15:09:38;22.90;90.60
9373;DHT22;10838;52.350;9.790;2023-07-13T15:12:06;22.80;90.60
9373;DHT22;10838;52.350;9.790;2023-07-13T15:14:34;22.70;90.60
9373;DHT22;10838;52.350;9.790;2023-07-13T15:17:00;22.60;90.60
9373;DHT22;10838;52.350;9.790;2023-07-13T15:19:27;22.50;90.60
9373;DHT22;10838;52.350;9.790;2023-07-13T15:21:55;22.40;90.60
9373;DHT22;10838;52.350;9.790;2023-07-13T15:24:23;22.30;90.70
9373;DHT22;10838;52.350;9.790;2023-07-13T15:26:50;22.20;90.70
9373;DHT22;10838;52.350;9.790;2023-07-13T15:29:17;22.10;90.70
9373;DHT22;10838;52.350;9.790;2023-07-13T15:31:45;22.00;90.70
9373;DHT22;10838;52.350;9.790;2023-07-13T15:34:14;22.00;90.70
9373;DHT22;10838;52.350;9.790;2023-07-13T15:36:41;21.90;90.70
9373;DHT22;10838;52.350;9.790;2023-07-13T15:39:13;21.80;90.70
9373;DHT22;10838;52.350;9.790;2023-07-13T15:41:41;21.80;90.70
9373;DHT22;10838;52.350;9.790;2023-07-13T15:44:23;21.70;90.80
9373;DHT22;10838;52.350;9.790;2023-07-13T15:46:52;21.70;90.80
9373;DHT22;10838;52.350;9.790;2023-07-13T15:49:19;21.70;90.80
9373;DHT22;10838;52.350;9.790;2023-07-13T15:51:46;21.60;90.80
9373;DHT22;10838;52.350;9.790;2023-07-13T15:54:16;21.60;90.90
9373;DHT22;10838;52.350;9.790;2023-07-13T15:56:43;21.60;91.00